createdAt,value
2022-09-15T00:00:09.485Z,9.65
2022-09-15T00:02:45.651Z,6.30
2022-09-15T00:05:14.630Z,5.68
2022-09-15T00:07:46.237Z,5.75
2022-09-15T00:10:27.953Z,8.02
2022-09-15T00:13:12.159Z,8.15
2022-09-15T00:15:41.946Z,7.65
2022-09-15T00:18:13.380Z,6.40
2022-09-15T00:20:45.255Z,5.05
2022-09-15T00:23:18.115Z,5.47
2022-09-15T00:25:58.451Z,6.20
2022-09-15T00:28:31.746Z,6.65
2022-09-15T00:31:12.848Z,5.80
2022-09-15T00:33:40.814Z,5.57
2022-09-15T00:36:12.401Z,5.72
2022-09-15T00:38:50.458Z,6.13
2022-09-15T00:41:24.590Z,5.80
2022-09-15T00:44:04.395Z,8.65
2022-09-15T00:46:40.027Z,7.82
2022-09-15T00:49:19.422Z,5.90
2022-09-15T00:51:55.224Z,7.93
2022-09-15T00:54:46.966Z,4.00
2022-09-15T00:57:35.911Z,5.88
2022-09-15T01:00:12.421Z,5.97
2022-09-15T01:02:46.159Z,5.93
2022-09-15T01:05:31.453Z,9.55
2022-09-15T01:08:14.681Z,7.30
2022-09-15T01:10:48.255Z,6.18
2022-09-15T01:13:17.534Z,10.32
2022-09-15T01:16:09.870Z,6.10
2022-09-15T01:19:13.532Z,6.50
2022-09-15T01:22:24.339Z,9.02
2022-09-15T01:25:09.224Z,6.35
2022-09-15T01:28:23.070Z,7.28
2022-09-15T01:30:59.952Z,6.03
2022-09-15T01:33:51.880Z,5.05
2022-09-15T01:36:25.152Z,4.70
2022-09-15T01:39:08.355Z,5.53
2022-09-15T01:41:45.284Z,6.57
2022-09-15T01:44:20.457Z,4.90
2022-09-15T01:46:53.455Z,6.78
2022-09-15T01:49:31.620Z,5.90
2022-09-15T01:51:59.233Z,5.85
2022-09-15T01:54:33.204Z,6.28
2022-09-15T01:57:09.171Z,5.15
2022-09-15T01:59:37.481Z,5.07
2022-09-15T02:02:10.247Z,4.82
2022-09-15T02:04:52.812Z,4.88
2022-09-15T02:07:48.136Z,5.60
2022-09-15T02:10:37.789Z,7.03
2022-09-15T02:13:21.606Z,6.90
2022-09-15T02:16:04.924Z,6.00
2022-09-15T02:19:20.736Z,6.10
2022-09-15T02:25:22.135Z,4.63
2022-09-15T02:27:52.203Z,5.53
2022-09-15T02:30:25.398Z,7.78
2022-09-15T02:33:04.190Z,5.45
2022-09-15T02:35:38.948Z,7.07
2022-09-15T02:38:13.648Z,5.05
2022-09-15T02:40:50.824Z,6.20
2022-09-15T02:43:27.819Z,5.35
2022-09-15T02:46:02.306Z,5.20
2022-09-15T02:48:38.656Z,6.97
2022-09-15T02:51:10.591Z,6.90
2022-09-15T02:53:44.104Z,5.15
2022-09-15T02:56:13.901Z,4.28
2022-09-15T02:58:45.866Z,5.50
2022-09-15T03:01:19.465Z,8.70
2022-09-15T03:03:46.801Z,6.40
2022-09-15T03:06:18.528Z,6.95
2022-09-15T03:09:05.186Z,7.88
2022-09-15T03:11:41.230Z,6.65
2022-09-15T03:14:26.506Z,6.45
2022-09-15T03:17:02.553Z,4.95
2022-09-15T03:19:32.691Z,5.72
2022-09-15T03:22:05.418Z,5.95
2022-09-15T03:24:42.364Z,4.90
2022-09-15T03:27:15.234Z,5.50
2022-09-15T03:29:51.324Z,3.65
2022-09-15T03:32:29.879Z,4.25
2022-09-15T03:35:02.253Z,5.75
2022-09-15T03:37:32.936Z,6.30
2022-09-15T03:40:05.849Z,6.55
2022-09-15T03:42:33.367Z,7.93
2022-09-15T03:45:03.915Z,5.03
2022-09-15T03:47:31.319Z,4.35
2022-09-15T03:49:58.912Z,6.22
2022-09-15T03:52:28.282Z,5.85
2022-09-15T03:54:58.556Z,4.30
2022-09-15T03:57:26.167Z,7.97
2022-09-15T03:59:58.475Z,4.45
2022-09-15T04:02:30.044Z,3.67
2022-09-15T04:05:02.311Z,3.20
2022-09-15T04:07:32.945Z,3.90
2022-09-15T04:10:02.916Z,4.00
2022-09-15T04:12:46.189Z,5.30
2022-09-15T04:17:47.352Z,4.82
2022-09-15T04:20:21.687Z,4.63
2022-09-15T04:22:49.893Z,3.47
2022-09-15T04:25:21.905Z,6.38
2022-09-15T04:28:02.780Z,4.60
2022-09-15T04:30:30.039Z,3.60
2022-09-15T04:33:05.937Z,3.47
2022-09-15T04:35:42.508Z,3.47
2022-09-15T04:38:15.649Z,5.47
2022-09-15T04:43:15.846Z,2.80
2022-09-15T04:45:42.361Z,6.85
2022-09-15T04:48:08.984Z,4.10
2022-09-15T04:50:35.557Z,4.05
2022-09-15T04:53:02.234Z,3.80
2022-09-15T04:55:29.052Z,6.18
2022-09-15T04:57:55.568Z,3.70
2022-09-15T05:00:22.149Z,3.25
2022-09-15T05:02:48.782Z,6.47
2022-09-15T05:05:15.280Z,4.95
2022-09-15T05:07:41.857Z,6.90
2022-09-15T05:10:08.992Z,3.88
2022-09-15T05:12:35.618Z,8.52
2022-09-15T05:15:06.045Z,2.85
2022-09-15T05:17:33.250Z,5.88
2022-09-15T05:20:00.494Z,5.32
2022-09-15T05:22:28.020Z,5.90
2022-09-15T05:24:54.775Z,6.47
2022-09-15T05:27:21.264Z,4.40
2022-09-15T05:29:47.838Z,3.83
2022-09-15T05:32:14.976Z,6.25
2022-09-15T05:34:41.536Z,4.88
2022-09-15T05:37:09.390Z,5.30
2022-09-15T05:39:35.921Z,6.32
2022-09-15T05:42:02.625Z,3.85
2022-09-15T05:44:29.491Z,3.75
2022-09-15T05:46:56.187Z,3.70
2022-09-15T05:49:23.136Z,7.07
2022-09-15T05:51:49.795Z,5.00
2022-09-15T05:54:16.395Z,3.75
2022-09-15T05:56:42.943Z,5.03
2022-09-15T05:59:09.539Z,6.38
2022-09-15T06:01:36.295Z,5.03
2022-09-15T06:04:03.080Z,3.80
2022-09-15T06:06:31.071Z,3.10
2022-09-15T06:08:59.483Z,4.10
2022-09-15T06:11:30.795Z,3.95
2022-09-15T06:14:01.590Z,3.95
2022-09-15T06:16:31.722Z,9.60
2022-09-15T06:18:59.215Z,4.10
2022-09-15T06:21:27.714Z,3.17
2022-09-15T06:24:06.954Z,8.30
2022-09-15T06:26:34.099Z,6.32
2022-09-15T06:29:02.702Z,5.95
2022-09-15T06:31:33.848Z,4.63
2022-09-15T06:34:01.742Z,35.35
2022-09-15T06:36:29.524Z,35.10
2022-09-15T06:38:56.871Z,28.27
2022-09-15T06:41:23.710Z,6.97
2022-09-15T06:43:50.251Z,7.25
2022-09-15T06:46:19.546Z,6.70
2022-09-15T06:48:48.562Z,5.93
2022-09-15T06:51:17.025Z,7.65
2022-09-15T06:53:44.134Z,9.25
2022-09-15T06:56:23.680Z,8.43
2022-09-15T06:58:50.557Z,11.38
2022-09-15T07:01:28.592Z,6.35
2022-09-15T07:03:58.204Z,7.22
2022-09-15T07:06:25.519Z,9.63
2022-09-15T07:08:53.849Z,9.52
2022-09-15T07:11:20.777Z,19.40
2022-09-15T07:13:49.153Z,11.50
2022-09-15T07:16:16.180Z,6.78
2022-09-15T07:18:43.774Z,9.25
2022-09-15T07:21:17.218Z,14.93
2022-09-15T07:23:44.255Z,9.48
2022-09-15T07:26:16.036Z,6.82
2022-09-15T07:28:44.271Z,5.38
2022-09-15T07:31:14.032Z,4.65
2022-09-15T07:33:41.042Z,3.80
2022-09-15T07:36:08.562Z,5.18
2022-09-15T07:38:38.419Z,4.93
2022-09-15T07:41:10.884Z,3.65
2022-09-15T07:43:38.165Z,5.20
2022-09-15T07:46:05.184Z,3.50
2022-09-15T07:48:32.159Z,3.83
2022-09-15T07:51:01.626Z,4.63
2022-09-15T07:53:29.352Z,3.25
2022-09-15T07:55:56.322Z,5.10
2022-09-15T07:58:23.315Z,6.07
2022-09-15T08:00:50.088Z,4.75
2022-09-15T08:03:16.794Z,4.18
2022-09-15T08:05:45.563Z,5.47
2022-09-15T08:08:12.586Z,5.07
2022-09-15T08:10:41.170Z,5.45
2022-09-15T08:13:08.147Z,3.53
2022-09-15T08:15:37.776Z,6.47
2022-09-15T08:18:05.406Z,4.97
2022-09-15T08:22:58.590Z,3.28
2022-09-15T08:25:25.242Z,7.28
2022-09-15T08:27:54.009Z,6.88
2022-09-15T08:30:21.248Z,11.18
2022-09-15T08:32:48.713Z,12.07
2022-09-15T08:37:42.716Z,5.03
2022-09-15T08:40:32.867Z,9.60
2022-09-15T08:43:05.899Z,5.00
2022-09-15T08:45:41.932Z,5.75
2022-09-15T08:48:09.970Z,5.90
2022-09-15T08:50:40.422Z,7.32
2022-09-15T08:53:27.475Z,3.95
2022-09-15T08:56:00.027Z,8.50
2022-09-15T08:58:29.835Z,4.78
2022-09-15T09:01:03.886Z,5.57
2022-09-15T09:03:39.576Z,6.57
2022-09-15T09:06:40.483Z,4.75
2022-09-15T09:09:22.139Z,2.85
2022-09-15T09:11:51.978Z,3.90
2022-09-15T09:14:36.378Z,3.63
2022-09-15T09:17:36.409Z,3.50
2022-09-15T09:20:34.281Z,5.50
2022-09-15T09:23:02.262Z,4.20
2022-09-15T09:25:28.888Z,2.95
2022-09-15T09:27:58.196Z,3.15
2022-09-15T09:30:27.631Z,3.28
2022-09-15T09:33:04.396Z,4.15
2022-09-15T09:35:41.366Z,4.65
2022-09-15T09:38:09.542Z,3.22
2022-09-15T09:40:41.153Z,5.97
2022-09-15T09:43:08.151Z,3.67
2022-09-15T09:45:34.803Z,3.38
2022-09-15T09:48:05.793Z,9.68
2022-09-15T09:50:39.081Z,12.43
2022-09-15T09:53:27.258Z,19.70
2022-09-15T09:55:55.527Z,19.88
2022-09-15T09:58:24.927Z,22.35
2022-09-15T10:00:52.830Z,28.85
2022-09-15T10:03:21.764Z,17.60
2022-09-15T10:06:07.628Z,13.50
2022-09-15T10:08:36.432Z,13.57
2022-09-15T10:11:05.823Z,10.52
2022-09-15T10:13:34.602Z,6.03
2022-09-15T10:16:02.505Z,9.23
2022-09-15T10:18:35.713Z,15.45
2022-09-15T10:21:04.374Z,6.10
2022-09-15T10:23:32.413Z,9.55
2022-09-15T10:26:33.741Z,5.47
2022-09-15T10:29:12.595Z,13.25
2022-09-15T10:31:39.896Z,14.77
2022-09-15T10:34:30.498Z,41.40
2022-09-15T10:37:14.049Z,17.05
2022-09-15T10:39:52.347Z,15.55
2022-09-15T10:42:37.887Z,11.52
2022-09-15T10:45:12.408Z,10.90
2022-09-15T10:47:43.300Z,14.50
2022-09-15T10:50:43.873Z,19.08
2022-09-15T10:53:17.420Z,18.98
2022-09-15T10:56:13.932Z,11.98
2022-09-15T10:59:06.978Z,13.45
2022-09-15T11:01:48.965Z,15.98
2022-09-15T11:04:25.216Z,12.50
2022-09-15T11:07:24.315Z,19.58
2022-09-15T11:09:55.874Z,17.88
2022-09-15T11:12:36.358Z,17.65
2022-09-15T11:15:09.829Z,20.05
2022-09-15T11:18:01.345Z,13.98
2022-09-15T11:21:10.986Z,32.83
2022-09-15T11:23:45.874Z,25.52
2022-09-15T11:26:30.058Z,23.63
2022-09-15T11:29:11.913Z,28.25
2022-09-15T11:31:41.137Z,19.40
2022-09-15T11:34:20.160Z,11.93
2022-09-15T11:36:52.136Z,17.48
2022-09-15T11:39:29.064Z,16.40
2022-09-15T11:42:01.014Z,12.25
2022-09-15T11:44:39.884Z,15.95
2022-09-15T11:47:26.305Z,8.73
2022-09-15T11:50:07.883Z,10.15
2022-09-15T11:52:51.920Z,11.40
2022-09-15T11:55:30.403Z,11.55
2022-09-15T11:58:15.512Z,12.00
2022-09-15T12:03:31.162Z,9.40
2022-09-15T12:06:02.364Z,8.70
2022-09-15T12:08:46.960Z,10.85
2022-09-15T12:11:18.828Z,11.07
2022-09-15T12:13:45.655Z,14.20
2022-09-15T12:16:12.630Z,13.43
2022-09-15T12:19:06.968Z,10.60
2022-09-15T12:21:38.750Z,11.52
2022-09-15T12:24:33.884Z,9.63
2022-09-15T12:27:01.125Z,12.38
2022-09-15T12:29:27.732Z,9.43
2022-09-15T12:32:20.499Z,15.80
2022-09-15T12:35:20.203Z,12.45
2022-09-15T12:40:36.226Z,11.98
2022-09-15T12:43:04.512Z,21.33
2022-09-15T12:45:33.760Z,20.52
2022-09-15T12:48:05.288Z,22.23
2022-09-15T12:50:35.404Z,19.67
2022-09-15T12:53:12.992Z,24.10
2022-09-15T12:56:01.721Z,14.50
2022-09-15T12:58:48.322Z,16.83
2022-09-15T13:01:18.625Z,15.25
2022-09-15T13:03:45.473Z,11.27
2022-09-15T13:06:24.956Z,15.68
2022-09-15T13:08:58.455Z,13.63
2022-09-15T13:11:37.547Z,15.07
2022-09-15T13:14:04.406Z,13.20
2022-09-15T13:16:40.019Z,9.98
2022-09-15T13:19:27.190Z,10.93
2022-09-15T13:22:02.259Z,10.35
2022-09-15T13:25:16.692Z,12.70
2022-09-15T13:27:45.620Z,17.52
2022-09-15T13:30:24.360Z,13.02
2022-09-15T13:33:00.962Z,9.88
2022-09-15T13:35:45.721Z,11.57
2022-09-15T13:38:34.134Z,10.75
2022-09-15T13:41:31.052Z,9.23
2022-09-15T13:44:26.217Z,7.40
2022-09-15T13:47:18.737Z,8.50
2022-09-15T13:50:06.931Z,7.22
2022-09-15T13:53:12.887Z,8.52
2022-09-15T14:01:04.726Z,7.40
2022-09-15T14:03:44.729Z,8.68
2022-09-15T14:06:33.734Z,8.60
2022-09-15T14:09:09.694Z,5.97
2022-09-15T14:11:37.773Z,5.50
2022-09-15T14:14:08.587Z,9.60
2022-09-15T14:16:39.146Z,9.57
2022-09-15T14:19:38.888Z,6.10
2022-09-15T14:22:17.548Z,9.00
2022-09-15T14:24:44.664Z,10.60
2022-09-15T14:27:11.738Z,9.68
2022-09-15T14:29:42.012Z,5.78
2022-09-15T14:32:15.094Z,11.82
2022-09-15T14:34:42.382Z,8.93
2022-09-15T14:37:17.499Z,7.75
2022-09-15T14:39:56.466Z,8.82
2022-09-15T14:42:32.329Z,7.97
2022-09-15T14:48:00.174Z,6.40
2022-09-15T14:50:31.890Z,10.02
2022-09-15T14:53:10.883Z,16.48
2022-09-15T14:56:00.619Z,9.57
2022-09-15T14:58:35.809Z,9.15
2022-09-15T15:01:15.651Z,8.82
2022-09-15T15:03:48.269Z,8.90
2022-09-15T15:06:28.666Z,12.40
2022-09-15T15:09:00.677Z,7.13
2022-09-15T15:11:28.048Z,6.38
2022-09-15T15:13:56.506Z,7.75
2022-09-15T15:16:26.136Z,8.82
2022-09-15T15:18:53.261Z,7.57
2022-09-15T15:21:43.657Z,9.63
2022-09-15T15:24:13.035Z,5.18
2022-09-15T15:26:42.185Z,5.68
2022-09-15T15:29:44.506Z,6.68
2022-09-15T15:32:22.400Z,6.07
2022-09-15T15:34:54.648Z,8.75
2022-09-15T15:37:28.252Z,6.72
2022-09-15T15:40:00.013Z,5.57
2022-09-15T15:42:28.792Z,8.50
2022-09-15T15:44:59.580Z,10.20
2022-09-15T15:47:29.378Z,9.00
2022-09-15T15:50:13.613Z,7.97
2022-09-15T15:52:41.929Z,6.65
2022-09-15T15:55:13.276Z,7.22
2022-09-15T15:57:40.013Z,6.30
2022-09-15T16:00:36.045Z,11.07
2022-09-15T16:03:02.622Z,8.93
2022-09-15T16:05:29.507Z,8.23
2022-09-15T16:07:57.055Z,7.75
2022-09-15T16:10:24.905Z,7.57
2022-09-15T16:12:52.031Z,6.43
2022-09-15T16:15:20.593Z,6.72
2022-09-15T16:17:48.178Z,7.65
2022-09-15T16:20:16.159Z,10.63
2022-09-15T16:22:43.204Z,10.68
2022-09-15T16:25:18.995Z,7.32
2022-09-15T16:27:45.597Z,10.55
2022-09-15T16:30:12.441Z,5.68
2022-09-15T16:32:40.157Z,8.27
2022-09-15T16:35:31.659Z,6.65
2022-09-15T16:37:58.170Z,7.35
2022-09-15T16:40:24.751Z,5.95
2022-09-15T16:42:51.557Z,7.57
2022-09-15T16:45:27.169Z,6.38
2022-09-15T16:47:53.737Z,8.13
2022-09-15T16:50:20.283Z,5.78
2022-09-15T16:52:46.857Z,7.93
2022-09-15T16:55:19.865Z,9.38
2022-09-15T16:57:46.466Z,9.43
2022-09-15T17:00:13.646Z,8.55
2022-09-15T17:02:40.238Z,7.53
2022-09-15T17:05:15.557Z,8.00
2022-09-15T17:07:42.069Z,6.05
2022-09-15T17:10:08.828Z,9.48
2022-09-15T17:12:36.983Z,7.70
2022-09-15T17:15:15.131Z,8.77
2022-09-15T17:17:41.654Z,8.18
2022-09-15T17:20:09.372Z,10.23
2022-09-15T17:22:36.310Z,8.23
2022-09-15T17:25:13.710Z,6.40
2022-09-15T17:27:40.262Z,7.22
2022-09-15T17:30:07.832Z,8.63
2022-09-15T17:32:35.061Z,7.45
2022-09-15T17:35:01.846Z,6.22
2022-09-15T17:37:28.409Z,8.27
2022-09-15T17:39:58.834Z,7.07
2022-09-15T17:42:25.806Z,11.48
2022-09-15T17:44:53.301Z,9.18
2022-09-15T17:47:19.967Z,9.00
2022-09-15T17:49:46.535Z,6.82
2022-09-15T17:52:13.029Z,10.27
2022-09-15T17:54:39.622Z,7.80
2022-09-15T17:57:07.815Z,6.72
2022-09-15T17:59:34.862Z,6.63
2022-09-15T18:02:01.601Z,7.50
2022-09-15T18:04:29.494Z,7.35
2022-09-15T18:09:22.604Z,9.73
2022-09-15T18:11:49.133Z,6.88
2022-09-15T18:14:15.808Z,6.75
2022-09-15T18:19:10.285Z,9.23
2022-09-15T18:21:36.828Z,8.43
2022-09-15T18:24:03.707Z,8.98
2022-09-15T18:26:30.319Z,6.45
2022-09-15T18:28:56.968Z,9.15
2022-09-15T18:31:23.728Z,6.15
2022-09-15T18:33:50.343Z,7.82
2022-09-15T18:36:16.861Z,7.00
2022-09-15T18:38:43.717Z,8.45
2022-09-15T18:41:11.720Z,6.70
2022-09-15T18:43:38.347Z,5.93
2022-09-15T18:46:11.207Z,5.90
2022-09-15T18:48:37.860Z,8.88
2022-09-15T18:51:08.563Z,7.32
2022-09-15T18:53:36.508Z,7.63
2022-09-15T18:56:13.525Z,6.93
2022-09-15T18:58:40.354Z,6.82
2022-09-15T19:01:07.370Z,8.20
2022-09-15T19:03:34.309Z,7.97
2022-09-15T19:06:05.259Z,11.18
2022-09-15T19:08:33.257Z,9.52
2022-09-15T19:11:00.905Z,7.25
2022-09-15T19:13:28.848Z,8.77
2022-09-15T19:15:56.350Z,9.02
2022-09-15T19:18:23.431Z,6.88
2022-09-15T19:20:50.007Z,9.07
2022-09-15T19:23:16.690Z,7.05
2022-09-15T19:25:45.457Z,9.98
2022-09-15T19:28:12.155Z,10.23
2022-09-15T19:30:39.126Z,10.55
2022-09-15T19:33:05.856Z,9.07
2022-09-15T19:35:32.463Z,8.07
2022-09-15T19:37:59.009Z,10.75
2022-09-15T19:40:25.607Z,9.07
2022-09-15T19:42:52.290Z,9.52
2022-09-15T19:45:19.145Z,9.70
2022-09-15T19:47:45.651Z,9.07
2022-09-15T19:50:12.263Z,8.55
2022-09-15T19:52:39.032Z,8.90
2022-09-15T19:55:07.412Z,10.27
2022-09-15T19:57:33.992Z,7.88
2022-09-15T20:00:00.497Z,10.05
2022-09-15T20:02:27.202Z,12.38
2022-09-15T20:04:53.955Z,10.68
2022-09-15T20:07:20.572Z,9.55
2022-09-15T20:09:47.512Z,8.75
2022-09-15T20:12:14.128Z,14.45
2022-09-15T20:14:41.223Z,11.05
2022-09-15T20:17:07.828Z,14.20
2022-09-15T20:19:34.636Z,12.73
2022-09-15T20:22:01.378Z,13.10
2022-09-15T20:24:27.952Z,12.45
2022-09-15T20:26:54.617Z,9.32
2022-09-15T20:29:21.235Z,13.27
2022-09-15T20:31:48.194Z,17.25
2022-09-15T20:34:15.115Z,12.20
2022-09-15T20:36:42.034Z,9.57
2022-09-15T20:39:12.850Z,8.20
2022-09-15T20:41:40.506Z,8.80
2022-09-15T20:44:10.873Z,11.23
2022-09-15T20:46:37.462Z,10.55
2022-09-15T20:49:04.701Z,11.38
2022-09-15T20:51:33.944Z,10.23
2022-09-15T20:54:03.488Z,11.27
2022-09-15T20:56:31.090Z,9.93
2022-09-15T20:58:59.141Z,9.45
2022-09-15T21:01:27.638Z,11.18
2022-09-15T21:03:55.337Z,12.20
2022-09-15T21:06:24.215Z,10.60
2022-09-15T21:08:51.183Z,11.55
2022-09-15T21:11:19.424Z,15.70
2022-09-15T21:13:48.128Z,11.80
2022-09-15T21:16:20.595Z,13.38
2022-09-15T21:18:48.083Z,11.93
2022-09-15T21:21:22.905Z,17.40
2022-09-15T21:23:51.715Z,9.60
2022-09-15T21:26:20.416Z,10.75
2022-09-15T21:28:47.365Z,12.50
2022-09-15T21:31:19.080Z,9.63
2022-09-15T21:33:47.191Z,9.50
2022-09-15T21:36:22.225Z,8.80
2022-09-15T21:38:50.578Z,11.48
2022-09-15T21:41:21.457Z,10.88
2022-09-15T21:43:48.784Z,13.77
2022-09-15T21:46:18.284Z,9.38
2022-09-15T21:48:47.312Z,9.25
2022-09-15T21:51:15.655Z,15.10
2022-09-15T21:53:42.987Z,9.10
2022-09-15T21:56:12.629Z,11.10
2022-09-15T21:58:42.988Z,9.25
2022-09-15T22:01:14.117Z,13.73
2022-09-15T22:03:44.628Z,10.35
2022-09-15T22:06:12.419Z,9.82
2022-09-15T22:11:06.884Z,11.75
2022-09-15T22:13:35.773Z,8.13
2022-09-15T22:16:05.349Z,9.30
2022-09-15T22:18:32.301Z,10.05
2022-09-15T22:21:14.840Z,12.48
2022-09-15T22:23:42.919Z,11.82
2022-09-15T22:26:21.003Z,12.13
2022-09-15T22:28:47.808Z,9.13
2022-09-15T22:31:16.410Z,11.43
2022-09-15T22:33:43.161Z,11.27
2022-09-15T22:36:14.027Z,12.18
2022-09-15T22:38:40.722Z,9.68
2022-09-15T22:41:09.412Z,8.95
2022-09-15T22:43:36.771Z,10.32
2022-09-15T22:46:03.809Z,9.82
2022-09-15T22:48:30.472Z,14.50
2022-09-15T22:50:57.171Z,10.70
2022-09-15T22:53:24.164Z,12.45
2022-09-15T22:55:51.560Z,10.00
2022-09-15T22:58:18.123Z,10.52
2022-09-15T23:00:45.005Z,12.68
2022-09-15T23:03:12.043Z,13.68
2022-09-15T23:05:38.667Z,12.80
2022-09-15T23:08:05.283Z,11.45
2022-09-15T23:10:32.726Z,9.55
2022-09-15T23:12:59.801Z,10.82
2022-09-15T23:15:26.567Z,9.30
2022-09-15T23:17:53.148Z,8.20
2022-09-15T23:20:19.752Z,8.07
2022-09-15T23:22:46.353Z,9.82
2022-09-15T23:25:13.495Z,8.60
2022-09-15T23:27:40.532Z,12.52
2022-09-15T23:30:07.599Z,11.90
2022-09-15T23:32:34.194Z,8.20
2022-09-15T23:35:00.836Z,7.03
2022-09-15T23:37:27.451Z,6.68
2022-09-15T23:39:54.370Z,12.25
2022-09-15T23:42:20.947Z,7.13
2022-09-15T23:44:47.556Z,8.15
2022-09-15T23:47:14.145Z,9.95
2022-09-15T23:49:41.611Z,8.30
2022-09-15T23:52:08.163Z,9.25
2022-09-15T23:54:34.741Z,7.65
2022-09-15T23:57:05.345Z,8.63
2022-09-15T23:59:31.913Z,7.63
